SOHO CELIAS Proton Monitor
Solar Wind Parameters for Carrington Rotation 1999 (hour averages)


Listed Parameters:

Measurement time (Year, Day of Year, Hour, Minute, Second)
Proton speed [km/sec]
Proton density [protons per cubic centimeter]
Most probable proton thermal speed [km/sec]
Arrival direction [degrees from north-south, with + meaning FROM the south).
(SPEED=-1 means NOT AVAILABLE)

SOHO spacecraft coordinates: based on SOHO PRE orbit files
GSE X, Y, Z [Earth Radii] 1 RE == 6378 km
Heliocentric Range [106 km],
Heliographic Latitude and Longitude [deg].

FORMAT=(1X,I2,1X,I3,1X,I2,1X,I2,1X,I2,F7.1,3F7.2,3X,3F7.1,F7.1,F7.2,F8.2)



                              CELIAS/MTOF/PM DATA                      SOHO ORBIT DATA              
 InSitu_Start__Time       [km/s]  [cm-3] [km/s]  [deg]      [Re]   [Re]   [Re]  [Mkm]  [deg]  [deg]
 YY MON DY DOY:HH:MM:SS   SPEED     Np     Vth    N/S      GSE_X  GSE_Y  GSE_Z  RANGE  HGLAT  HGLONG
 03 JAN 23  23:23:00:00     607    3.9      53   -1.7      195.0   54.8   13.6  146.0   -5.3   359.0
 03 JAN 24  24:00:00:00     611    4.5      52   -1.3      195.1   55.0   13.6  146.0   -5.3   358.4
 03 JAN 24  24:01:00:00     601    4.5      51   -2.2      195.1   55.1   13.5  146.0   -5.3   357.9
 03 JAN 24  24:02:00:00     611    4.0      54   -1.2      195.1   55.2   13.5  146.0   -5.3   357.3
 03 JAN 24  24:03:00:00     606    5.0      54   -1.8      195.1   55.4   13.5  146.0   -5.3   356.8
 03 JAN 24  24:04:00:00     601    4.8      51   -2.5      195.1   55.5   13.5  146.0   -5.3   356.2
 03 JAN 24  24:05:00:00     617    4.2      54   -0.4      195.2   55.6   13.5  146.0   -5.3   355.7
 03 JAN 24  24:06:00:00     628    4.7      56   -0.3      195.2   55.8   13.4  146.0   -5.3   355.1
 03 JAN 24  24:07:00:00     616    4.6      54   -1.3      195.2   55.9   13.4  146.0   -5.3   354.6
 03 JAN 24  24:08:00:00     617    4.5      52   -0.5      195.2   56.0   13.4  146.0   -5.4   354.0
 03 JAN 24  24:09:00:00     685    4.5      62    0.8      195.2   56.2   13.4  146.0   -5.4   353.5
 03 JAN 24  24:10:00:00     664    4.8      59    0.1      195.3   56.3   13.4  146.0   -5.4   352.9
 03 JAN 24  24:11:00:00     652    4.7      58   -0.1      195.3   56.4   13.4  146.0   -5.4   352.4
 03 JAN 24  24:12:00:00     656    3.3      58   -1.0      195.3   56.6   13.3  146.0   -5.4   351.8
 03 JAN 24  24:13:00:00     660    3.9      59    1.7      195.3   56.7   13.3  146.0   -5.4   351.3
 03 JAN 24  24:14:00:00     735    4.1      60    0.8      195.3   56.8   13.3  146.0   -5.4   350.7
 03 JAN 24  24:15:00:00     721    4.0      58    0.9      195.4   57.0   13.3  146.0   -5.4   350.2
 03 JAN 24  24:16:00:00     679    4.5      60    1.2      195.4   57.1   13.3  146.0   -5.4   349.6
 03 JAN 24  24:17:00:00     724    4.2      63    1.4      195.4   57.2   13.2  146.0   -5.4   349.1
 03 JAN 24  24:18:00:00     746    4.0      59   -0.3      195.4   57.4   13.2  146.0   -5.4   348.5
 03 JAN 24  24:19:00:00     735    4.3      58    0.3      195.5   57.5   13.2  146.0   -5.4   348.0
 03 JAN 24  24:20:00:00     751    4.3      58    0.5      195.5   57.6   13.2  146.0   -5.4   347.4
 03 JAN 24  24:21:00:00     759    4.0      55    1.2      195.5   57.8   13.2  146.0   -5.4   346.9
 03 JAN 24  24:22:00:00     725    3.6      57   -0.8      195.5   57.9   13.1  146.0   -5.4   346.3
 03 JAN 24  24:23:00:00     719    4.1      57   -0.8      195.5   58.0   13.1  146.0   -5.4   345.8
 03 JAN 25  25:00:00:00     749    3.6      58    1.0      195.6   58.2   13.1  146.0   -5.4   345.2
 03 JAN 25  25:01:00:00     750    3.5      55   -1.6      195.6   58.3   13.1  146.0   -5.4   344.7
 03 JAN 25  25:02:00:00     741    3.5      59   -0.3      195.6   58.4   13.1  146.0   -5.4   344.1
 03 JAN 25  25:03:00:00     758    3.6      53   -0.3      195.6   58.6   13.0  146.0   -5.4   343.6
 03 JAN 25  25:04:00:00     725    3.2      57   -1.0      195.6   58.7   13.0  146.0   -5.4   343.0
 03 JAN 25  25:05:00:00     759    3.4      52    1.4      195.7   58.8   13.0  146.0   -5.4   342.5
 03 JAN 25  25:06:00:00     747    3.3      57    0.7      195.7   58.9   13.0  146.0   -5.4   341.9
 03 JAN 25  25:07:00:00     735    3.3      58    0.0      195.7   59.1   13.0  146.0   -5.4   341.4
 03 JAN 25  25:08:00:00     734    3.2      60    0.2      195.7   59.2   13.0  146.0   -5.4   340.8
 03 JAN 25  25:09:00:00     743    3.4      58    0.0      195.8   59.3   12.9  146.0   -5.4   340.3
 03 JAN 25  25:10:00:00     722    3.4      59   -0.3      195.8   59.5   12.9  146.0   -5.4   339.7
 03 JAN 25  25:11:00:00     713    3.5      60    1.1      195.8   59.6   12.9  146.0   -5.4   339.2
 03 JAN 25  25:12:00:00     741    3.5      57    1.0      195.8   59.7   12.9  146.0   -5.5   338.6
 03 JAN 25  25:13:00:00     723    3.8      61    0.7      195.8   59.9   12.9  146.0   -5.5   338.1
 03 JAN 25  25:14:00:00     764    4.0      55    1.0      195.9   60.0   12.8  146.0   -5.5   337.5
 03 JAN 25  25:15:00:00     761    4.0      51   -0.1      195.9   60.1   12.8  146.0   -5.5   337.0
 03 JAN 25  25:16:00:00     761    4.2      53    1.3      195.9   60.3   12.8  146.0   -5.5   336.4
 03 JAN 25  25:17:00:00     734    3.5      61    0.6      195.9   60.4   12.8  146.0   -5.5   335.9
 03 JAN 25  25:18:00:00     714    3.6      61   -0.4      196.0   60.5   12.8  146.0   -5.5   335.3
 03 JAN 25  25:19:00:00     725    4.0      61    1.1      196.0   60.6   12.7  146.0   -5.5   334.8
 03 JAN 25  25:20:00:00     734    3.5      57   -0.6      196.0   60.8   12.7  146.0   -5.5   334.2
 03 JAN 25  25:21:00:00     693    3.7      62    1.1      196.0   60.9   12.7  146.0   -5.5   333.7
 03 JAN 25  25:22:00:00     670    4.6      60    2.7      196.0   61.0   12.7  146.0   -5.5   333.1
 03 JAN 25  25:23:00:00     659    5.1      59    3.0      196.1   61.2   12.7  146.0   -5.5   332.6
 03 JAN 26  26:00:00:00     670    3.9      60    0.6      196.1   61.3   12.6  146.0   -5.5   332.0
 03 JAN 26  26:01:00:00     724    3.9      60    1.6      196.1   61.4   12.6  146.0   -5.5   331.5
 03 JAN 26  26:02:00:00     714    3.9      60    0.9      196.1   61.6   12.6  146.0   -5.5   330.9
 03 JAN 26  26:03:00:00     730    3.9      59    0.8      196.2   61.7   12.6  146.0   -5.5   330.4
 03 JAN 26  26:04:00:00     756    4.2      53    1.1      196.2   61.8   12.6  146.0   -5.5   329.8
 03 JAN 26  26:05:00:00     736    4.0      57    1.8      196.2   61.9   12.5  146.0   -5.5   329.3
 03 JAN 26  26:06:00:00     663    4.3      59    1.9      196.2   62.1   12.5  146.0   -5.5   328.7
 03 JAN 26  26:07:00:00     712    3.8      59    1.1      196.3   62.2   12.5  146.0   -5.5   328.2
 03 JAN 26  26:08:00:00     701    3.2      61    1.5      196.3   62.3   12.5  146.0   -5.5   327.6
 03 JAN 26  26:09:00:00     623    4.6      55    1.3      196.3   62.5   12.4  146.0   -5.5   327.1
 03 JAN 26  26:10:00:00     700    3.2      63    0.3      196.3   62.6   12.4  146.0   -5.5   326.5
 03 JAN 26  26:11:00:00     678    3.0      61   -0.1      196.3   62.7   12.4  146.0   -5.5   326.0
 03 JAN 26  26:12:00:00     646    3.6      57    0.4      196.4   62.8   12.4  146.0   -5.5   325.4
 03 JAN 26  26:13:00:00     645    4.2      56    0.7      196.4   63.0   12.4  146.0   -5.5   324.9
 03 JAN 26  26:14:00:00     685    3.3      62    0.3      196.4   63.1   12.3  146.0   -5.5   324.3
 03 JAN 26  26:15:00:00     650    3.8      57    0.7      196.4   63.2   12.3  146.0   -5.5   323.8
 03 JAN 26  26:16:00:00     665    3.1      59   -0.2      196.5   63.3   12.3  146.0   -5.5   323.2
 03 JAN 26  26:17:00:00     640    3.1      55   -0.7      196.5   63.5   12.3  146.0   -5.6   322.7
 03 JAN 26  26:18:00:00     587    3.8      42   -0.2      196.5   63.6   12.3  146.0   -5.6   322.1
 03 JAN 26  26:19:00:00     573    4.7      38    0.5      196.5   63.7   12.2  146.0   -5.6   321.6
 03 JAN 26  26:20:00:00     568    4.9      35    0.0      196.6   63.9   12.2  146.0   -5.6   321.0
 03 JAN 26  26:21:00:00     572    6.2      37   -0.6      196.6   64.0   12.2  146.0   -5.6   320.5
 03 JAN 26  26:22:00:00     577    4.8      37   -2.0      196.6   64.1   12.2  146.0   -5.6   319.9
 03 JAN 26  26:23:00:00     579    4.2      38   -2.3      196.6   64.2   12.2  146.0   -5.6   319.4
 03 JAN 27  27:00:00:00     582    5.2      40   -2.0      196.7   64.4   12.1  146.0   -5.6   318.8
 03 JAN 27  27:01:00:00     579    6.0      43   -2.1      196.7   64.5   12.1  146.0   -5.6   318.3
 03 JAN 27  27:02:00:00     591    0.7      45    0.3      196.7   64.6   12.1  146.0   -5.6   317.7
 03 JAN 27  27:03:00:00     588    1.4      41   -1.0      196.7   64.7   12.1  146.0   -5.6   317.2
 03 JAN 27  27:04:00:00     572    1.8      38   -1.7      196.8   64.9   12.1  146.1   -5.6   316.6
 03 JAN 27  27:05:00:00     575    1.0      44   -0.8      196.8   65.0   12.0  146.1   -5.6   316.1
 03 JAN 27  27:06:00:00     552    0.9      46   -0.4      196.8   65.1   12.0  146.1   -5.6   315.5
 03 JAN 27  27:07:00:00     479    2.5      36   -0.8      196.8   65.2   12.0  146.1   -5.6   315.0
 03 JAN 27  27:08:00:00     484    1.2      35   -1.0      196.9   65.4   12.0  146.1   -5.6   314.4
 03 JAN 27  27:09:00:00     473    1.5      36   -1.0      196.9   65.5   11.9  146.1   -5.6   313.8
 03 JAN 27  27:10:00:00     485    1.0      39   -0.8      196.9   65.6   11.9  146.1   -5.6   313.3
 03 JAN 27  27:11:00:00     491    1.1      42   -1.4      196.9   65.8   11.9  146.1   -5.6   312.7
 03 JAN 27  27:12:00:00     469    2.3      34   -1.0      196.9   65.9   11.9  146.1   -5.6   312.2
 03 JAN 27  27:13:00:00     469    2.3      34   -0.7      197.0   66.0   11.9  146.1   -5.6   311.6
 03 JAN 27  27:14:00:00     469    1.7      33   -1.5      197.0   66.1   11.8  146.1   -5.6   311.1
 03 JAN 27  27:15:00:00     478    2.5      38   -1.6      197.0   66.3   11.8  146.1   -5.6   310.5
 03 JAN 27  27:16:00:00     497    8.9      41   -2.1      197.0   66.4   11.8  146.1   -5.6   310.0
 03 JAN 27  27:17:00:00     525   13.4      47   -2.2      197.1   66.5   11.8  146.1   -5.6   309.4
 03 JAN 27  27:18:00:00     515   13.3      46   -2.6      197.1   66.6   11.8  146.1   -5.6   308.9
 03 JAN 27  27:19:00:00     501   10.5      43   -1.9      197.1   66.8   11.7  146.1   -5.6   308.3
 03 JAN 27  27:20:00:00     484    7.8      40   -1.5      197.1   66.9   11.7  146.1   -5.6   307.8
 03 JAN 27  27:21:00:00     476    5.3      40   -0.6      197.2   67.0   11.7  146.1   -5.6   307.2
 03 JAN 27  27:22:00:00     477    4.1      37   -0.7      197.2   67.1   11.7  146.1   -5.7   306.7
 03 JAN 27  27:23:00:00     462    5.9      38   -1.5      197.2   67.2   11.6  146.1   -5.7   306.1
 03 JAN 28  28:00:00:00     454    7.1      38   -0.4      197.2   67.4   11.6  146.1   -5.7   305.6
 03 JAN 28  28:01:00:00     470    4.7      41    0.1      197.3   67.5   11.6  146.1   -5.7   305.0
 03 JAN 28  28:02:00:00     463    4.1      40   -0.5      197.3   67.6   11.6  146.1   -5.7   304.5
 03 JAN 28  28:03:00:00     457    3.8      41   -0.2      197.3   67.7   11.6  146.1   -5.7   303.9
 03 JAN 28  28:04:00:00     452    4.6      35    1.3      197.3   67.9   11.5  146.1   -5.7   303.4
 03 JAN 28  28:05:00:00     458    4.2      33    1.0      197.4   68.0   11.5  146.1   -5.7   302.8
 03 JAN 28  28:06:00:00     460    2.6      34   -0.5      197.4   68.1   11.5  146.1   -5.7   302.3
 03 JAN 28  28:07:00:00     460    2.5      36   -1.2      197.4   68.2   11.5  146.1   -5.7   301.7
 03 JAN 28  28:08:00:00     458    3.5      37   -1.5      197.4   68.4   11.4  146.1   -5.7   301.2
 03 JAN 28  28:09:00:00     462    4.9      37   -1.9      197.5   68.5   11.4  146.1   -5.7   300.6
 03 JAN 28  28:10:00:00     468    6.2      36   -2.6      197.5   68.6   11.4  146.1   -5.7   300.1
 03 JAN 28  28:11:00:00     464    8.3      36   -3.0      197.5   68.7   11.4  146.1   -5.7   299.5
 03 JAN 28  28:12:00:00     451    7.3      40   -2.0      197.5   68.8   11.4  146.1   -5.7   299.0
 03 JAN 28  28:13:00:00     453    9.4      42   -0.8      197.6   69.0   11.3  146.1   -5.7   298.4
 03 JAN 28  28:14:00:00     452    9.1      42   -0.6      197.6   69.1   11.3  146.1   -5.7   297.9
 03 JAN 28  28:15:00:00     464    8.8      39   -0.6      197.6   69.2   11.3  146.1   -5.7   297.3
 03 JAN 28  28:16:00:00     457    9.7      38   -0.4      197.6   69.3   11.3  146.1   -5.7   296.8
 03 JAN 28  28:17:00:00     449   10.2      38    0.4      197.7   69.5   11.2  146.1   -5.7   296.2
 03 JAN 28  28:18:00:00     444   10.5      39    1.2      197.7   69.6   11.2  146.1   -5.7   295.7
 03 JAN 28  28:19:00:00     433    9.4      40    1.8      197.7   69.7   11.2  146.1   -5.7   295.1
 03 JAN 28  28:20:00:00     433    6.8      41    0.9      197.7   69.8   11.2  146.1   -5.7   294.6
 03 JAN 28  28:21:00:00     429    6.8      39    0.5      197.8   69.9   11.2  146.1   -5.7   294.0
 03 JAN 28  28:22:00:00     428    6.1      39    0.9      197.8   70.1   11.1  146.1   -5.7   293.5
 03 JAN 28  28:23:00:00     422    5.5      39    0.8      197.8   70.2   11.1  146.1   -5.7   292.9
 03 JAN 29  29:00:00:00     421    5.5      37    0.7      197.8   70.3   11.1  146.1   -5.7   292.4
 03 JAN 29  29:01:00:00     414    5.1      35    0.4      197.9   70.4   11.1  146.1   -5.7   291.8
 03 JAN 29  29:02:00:00     410    4.8      35   -0.4      197.9   70.5   11.0  146.1   -5.7   291.3
 03 JAN 29  29:03:00:00     405    4.3      33   -0.6      197.9   70.7   11.0  146.1   -5.7   290.7
 03 JAN 29  29:04:00:00     402    4.6      33   -1.0      197.9   70.8   11.0  146.1   -5.8   290.2
 03 JAN 29  29:05:00:00     402    4.2      32   -2.0      198.0   70.9   11.0  146.1   -5.8   289.6
 03 JAN 29  29:06:00:00     404    4.3      33   -2.2      198.0   71.0   11.0  146.1   -5.8   289.1
 03 JAN 29  29:07:00:00     401    4.0      32   -1.7      198.0   71.1   10.9  146.1   -5.8   288.5
 03 JAN 29  29:08:00:00     405    5.3      33   -0.1      198.0   71.3   10.9  146.1   -5.8   288.0
 03 JAN 29  29:09:00:00     405   10.3      33    2.5      198.1   71.4   10.9  146.1   -5.8   287.4
 03 JAN 29  29:10:00:00     434    7.1      36    0.9      198.1   71.5   10.9  146.1   -5.8   286.9
 03 JAN 29  29:11:00:00     442   10.3      39    2.8      198.1   71.6   10.8  146.1   -5.8   286.3
 03 JAN 29  29:12:00:00     455   16.8      44    2.3      198.1   71.7   10.8  146.1   -5.8   285.8
 03 JAN 29  29:13:00:00     414   16.7      39    2.0      198.2   71.9   10.8  146.1   -5.8   285.2
 03 JAN 29  29:14:00:00     414   11.9      37    1.8      198.2   72.0   10.8  146.1   -5.8   284.7
 03 JAN 29  29:15:00:00     428    8.1      37    0.8      198.2   72.1   10.7  146.1   -5.8   284.1
 03 JAN 29  29:16:00:00     434    8.7      34   -0.3      198.3   72.2   10.7  146.1   -5.8   283.6
 03 JAN 29  29:17:00:00     443    8.5      36   -1.5      198.3   72.3   10.7  146.1   -5.8   283.0
 03 JAN 29  29:18:00:00     434   11.0      39   -1.9      198.3   72.4   10.7  146.1   -5.8   282.5
 03 JAN 29  29:19:00:00     429    6.6      38   -3.0      198.3   72.6   10.7  146.1   -5.8   281.9
 03 JAN 29  29:20:00:00     427    6.6      36   -3.3      198.4   72.7   10.6  146.1   -5.8   281.4
 03 JAN 29  29:21:00:00     415    6.8      35   -2.8      198.4   72.8   10.6  146.1   -5.8   280.8
 03 JAN 29  29:22:00:00     427    8.4      36   -3.2      198.4   72.9   10.6  146.1   -5.8   280.3
 03 JAN 29  29:23:00:00     429    6.4      38   -3.5      198.4   73.0   10.6  146.1   -5.8   279.7
 03 JAN 30  30:00:00:00     429    6.1      38   -4.2      198.5   73.2   10.5  146.1   -5.8   279.2
 03 JAN 30  30:01:00:00     442    9.3      37   -4.2      198.5   73.3   10.5  146.1   -5.8   278.6
 03 JAN 30  30:02:00:00     423    7.5      37   -3.1      198.5   73.4   10.5  146.1   -5.8   278.1
 03 JAN 30  30:03:00:00     427    8.1      37   -3.8      198.5   73.5   10.5  146.1   -5.8   277.5
 03 JAN 30  30:04:00:00     436   10.4      37   -5.5      198.6   73.6   10.4  146.1   -5.8   277.0
 03 JAN 30  30:05:00:00     439   10.6      38   -3.0      198.6   73.7   10.4  146.1   -5.8   276.4
 03 JAN 30  30:06:00:00     437   11.7      38   -3.6      198.6   73.9   10.4  146.1   -5.8   275.9
 03 JAN 30  30:07:00:00     425   10.1      40   -0.2      198.6   74.0   10.4  146.1   -5.8   275.3
 03 JAN 30  30:08:00:00     431    9.7      37   -3.8      198.7   74.1   10.4  146.1   -5.8   274.8
 03 JAN 30  30:09:00:00     438   11.3      37   -3.7      198.7   74.2   10.3  146.1   -5.8   274.2
 03 JAN 30  30:10:00:00     477   14.2      45    0.2      198.7   74.3   10.3  146.1   -5.8   273.7
 03 JAN 30  30:11:00:00     492   12.5      44   -1.0      198.7   74.4   10.3  146.1   -5.9   273.1
 03 JAN 30  30:12:00:00     493   12.2      43   -1.4      198.8   74.5   10.3  146.1   -5.9   272.6
 03 JAN 30  30:13:00:00     501   15.1      44    4.2      198.8   74.7   10.2  146.1   -5.9   272.0
 03 JAN 30  30:14:00:00     500    7.7      42    0.8      198.8   74.8   10.2  146.1   -5.9   271.5
 03 JAN 30  30:15:00:00     501    7.0      43   -0.1      198.8   74.9   10.2  146.1   -5.9   270.9
 03 JAN 30  30:16:00:00     525   11.4      48    4.3      198.9   75.0   10.2  146.1   -5.9   270.4
 03 JAN 30  30:17:00:00     515    9.7      48    2.1      198.9   75.1   10.1  146.1   -5.9   269.8
 03 JAN 30  30:18:00:00     513   10.2      61    4.6      198.9   75.2   10.1  146.1   -5.9   269.3
 03 JAN 30  30:19:00:00     497   10.9      46    4.5      198.9   75.3   10.1  146.1   -5.9   268.7
 03 JAN 30  30:20:00:00     499    7.5      46    1.3      199.0   75.5   10.1  146.1   -5.9   268.2
 03 JAN 30  30:21:00:00     491    7.1      43    0.1      199.0   75.6   10.0  146.1   -5.9   267.6
 03 JAN 30  30:22:00:00     477    6.3      39   -1.1      199.0   75.7   10.0  146.1   -5.9   267.1
 03 JAN 30  30:23:00:00     478    6.2      38   -1.9      199.1   75.8   10.0  146.1   -5.9   266.5
 03 JAN 31  31:00:00:00     477    5.6      39   -1.5      199.1   75.9   10.0  146.1   -5.9   266.0
 03 JAN 31  31:01:00:00     487    5.1      43   -1.6      199.1   76.0    9.9  146.1   -5.9   265.4
 03 JAN 31  31:02:00:00     506    3.6      49   -1.3      199.1   76.1    9.9  146.1   -5.9   264.9
 03 JAN 31  31:03:00:00     523    4.1      50   -0.5      199.2   76.3    9.9  146.1   -5.9   264.3
 03 JAN 31  31:04:00:00     541    3.5      52   -0.5      199.2   76.4    9.9  146.1   -5.9   263.8
 03 JAN 31  31:05:00:00     536    3.5      59   -0.1      199.2   76.5    9.9  146.1   -5.9   263.2
 03 JAN 31  31:06:00:00     525    4.2      55    0.6      199.2   76.6    9.8  146.1   -5.9   262.7
 03 JAN 31  31:07:00:00     539    3.9      56   -1.3      199.3   76.7    9.8  146.1   -5.9   262.1
 03 JAN 31  31:08:00:00     562    4.8      58    0.5      199.3   76.8    9.8  146.1   -5.9   261.6
 03 JAN 31  31:09:00:00     551    4.5      54   -1.9      199.3   76.9    9.8  146.1   -5.9   261.0
 03 JAN 31  31:10:00:00     531    4.5      56   -1.8      199.3   77.0    9.7  146.1   -5.9   260.5
 03 JAN 31  31:11:00:00     533    4.0      56   -0.9      199.4   77.1    9.7  146.1   -5.9   259.9
 03 JAN 31  31:12:00:00     524    3.1      52   -1.9      199.4   77.3    9.7  146.1   -5.9   259.4
 03 JAN 31  31:13:00:00     480    3.1      63   -3.2      199.4   77.4    9.7  146.1   -5.9   258.8
 03 JAN 31  31:14:00:00     458    3.4      56   -3.1      199.4   77.5    9.6  146.1   -5.9   258.3
 03 JAN 31  31:15:00:00     449    3.0      51   -2.8      199.5   77.6    9.6  146.1   -5.9   257.7
 03 JAN 31  31:16:00:00     448    1.8      47   -1.7      199.5   77.7    9.6  146.1   -5.9   257.2
 03 JAN 31  31:17:00:00     436    2.0      45   -0.8      199.5   77.8    9.6  146.1   -5.9   256.6
 03 JAN 31  31:18:00:00     417    3.1      45   -1.1      199.5   77.9    9.5  146.1   -5.9   256.1
 03 JAN 31  31:19:00:00     424    2.8      48   -1.0      199.6   78.0    9.5  146.1   -6.0   255.5
 03 JAN 31  31:20:00:00     428    3.3      47   -0.2      199.6   78.1    9.5  146.1   -6.0   255.0
 03 JAN 31  31:21:00:00     424    2.7      53   -0.3      199.6   78.2    9.5  146.1   -6.0   254.4
 03 JAN 31  31:22:00:00     422    2.0      50    0.3      199.7   78.4    9.4  146.1   -6.0   253.9
 03 JAN 31  31:23:00:00     437    1.7      53    0.1      199.7   78.5    9.4  146.1   -6.0   253.3
 03 FEB  1  32:00:00:00     428    1.3      50    1.4      199.7   78.6    9.4  146.1   -6.0   252.8
 03 FEB  1  32:01:00:00     419    1.2      47    0.6      199.7   78.7    9.4  146.1   -6.0   252.2
 03 FEB  1  32:02:00:00     409    1.1      45    1.6      199.8   78.8    9.3  146.1   -6.0   251.7
 03 FEB  1  32:03:00:00     399    0.9      39    0.7      199.8   78.9    9.3  146.1   -6.0   251.1
 03 FEB  1  32:04:00:00     414    0.7      44    2.7      199.8   79.0    9.3  146.1   -6.0   250.6
 03 FEB  1  32:05:00:00     393    0.7      40    3.8      199.8   79.1    9.3  146.1   -6.0   250.0
 03 FEB  1  32:06:00:00     399    0.6      39    4.3      199.9   79.2    9.2  146.1   -6.0   249.5
 03 FEB  1  32:07:00:00     412    0.6      32    3.3      199.9   79.3    9.2  146.1   -6.0   248.9
 03 FEB  1  32:08:00:00     437    0.5      30    0.9      199.9   79.4    9.2  146.1   -6.0   248.4
 03 FEB  1  32:09:00:00     414    0.6      31    2.2      199.9   79.5    9.2  146.1   -6.0   247.8
 03 FEB  1  32:10:00:00     408    0.5      31   -0.6      200.0   79.6    9.2  146.1   -6.0   247.3
 03 FEB  1  32:11:00:00     439    0.4      32   -0.6      200.0   79.7    9.1  146.1   -6.0   246.7
 03 FEB  1  32:12:00:00     410    0.5      30   -5.6      200.0   79.9    9.1  146.1   -6.0   246.2
 03 FEB  1  32:13:00:00     508    0.5      38   -4.8      200.0   80.0    9.1  146.1   -6.0   245.6
 03 FEB  1  32:14:00:00     621    0.5      44    0.3      200.1   80.1    9.1  146.1   -6.0   245.1
 03 FEB  1  32:15:00:00     805    0.6      56    7.7      200.1   80.2    9.0  146.1   -6.0   244.5
 03 FEB  1  32:16:00:00     757    1.3      71    7.8      200.1   80.3    9.0  146.1   -6.0   244.0
 03 FEB  1  32:17:00:00     679    2.3      66    5.4      200.2   80.4    9.0  146.1   -6.0   243.4
 03 FEB  1  32:18:00:00     725    1.3      74    6.8      200.2   80.5    9.0  146.1   -6.0   242.9
 03 FEB  1  32:19:00:00     694    1.5      65    1.0      200.2   80.6    8.9  146.1   -6.0   242.3
 03 FEB  1  32:20:00:00     687    1.9      56   -1.0      200.2   80.7    8.9  146.1   -6.0   241.8
 03 FEB  1  32:21:00:00     713    2.3      58   -3.2      200.3   80.8    8.9  146.1   -6.0   241.2
 03 FEB  1  32:22:00:00     723    1.9      53   -3.0      200.3   80.9    8.9  146.1   -6.0   240.7
 03 FEB  1  32:23:00:00     675    2.0      46   -4.4      200.3   81.0    8.8  146.1   -6.0   240.1
 03 FEB  2  33:00:00:00     574    8.3      37   -6.7      200.3   81.1    8.8  146.1   -6.0   239.6
 03 FEB  2  33:01:00:00     572   16.8      39   -6.3      200.4   81.2    8.8  146.1   -6.0   239.0
 03 FEB  2  33:02:00:00     557   10.1      41   -5.1      200.4   81.3    8.8  146.1   -6.0   238.5
 03 FEB  2  33:03:00:00     554    6.0      47   -1.9      200.4   81.4    8.7  146.1   -6.0   237.9
 03 FEB  2  33:04:00:00     536    9.0      45   -3.0      200.4   81.5    8.7  146.1   -6.1   237.4
 03 FEB  2  33:05:00:00     534   12.1      44   -2.7      200.5   81.6    8.7  146.1   -6.1   236.8
 03 FEB  2  33:06:00:00     525   13.3      43   -1.9      200.5   81.7    8.7  146.1   -6.1   236.3
 03 FEB  2  33:07:00:00     490   12.4      39   -2.0      200.5   81.8    8.6  146.1   -6.1   235.7
 03 FEB  2  33:08:00:00     485   11.7      37   -1.8      200.6   81.9    8.6  146.1   -6.1   235.2
 03 FEB  2  33:09:00:00     463    8.8      29   -1.3      200.6   82.0    8.6  146.1   -6.1   234.6
 03 FEB  2  33:10:00:00     458    9.1      27   -1.4      200.6   82.1    8.6  146.2   -6.1   234.1
 03 FEB  2  33:11:00:00     460    8.4      28   -1.4      200.6   82.2    8.5  146.2   -6.1   233.5
 03 FEB  2  33:12:00:00     465    9.8      31   -1.9      200.7   82.3    8.5  146.2   -6.1   233.0
 03 FEB  2  33:13:00:00     467   12.3      36   -0.4      200.7   82.4    8.5  146.2   -6.1   232.4
 03 FEB  2  33:14:00:00     437   19.4      41   -0.1      200.7   82.5    8.5  146.2   -6.1   231.9
 03 FEB  2  33:15:00:00     433   14.9      41    0.1      200.7   82.6    8.4  146.2   -6.1   231.3
 03 FEB  2  33:16:00:00     425   13.5      50   -0.2      200.8   82.7    8.4  146.2   -6.1   230.8
 03 FEB  2  33:17:00:00     398   18.1      38    1.4      200.8   82.8    8.4  146.2   -6.1   230.2
 03 FEB  2  33:18:00:00     455    9.9      40    2.0      200.8   82.9    8.4  146.2   -6.1   229.7
 03 FEB  2  33:19:00:00     466    8.5      38    0.6      200.8   83.0    8.3  146.2   -6.1   229.1
 03 FEB  2  33:20:00:00     473    7.5      38   -0.8      200.9   83.1    8.3  146.2   -6.1   228.6
 03 FEB  2  33:21:00:00     477    6.6      38   -1.1      200.9   83.2    8.3  146.2   -6.1   228.0
 03 FEB  2  33:22:00:00     478    6.2      37   -0.8      200.9   83.3    8.3  146.2   -6.1   227.5
 03 FEB  2  33:23:00:00     482    4.4      36   -0.2      201.0   83.4    8.2  146.2   -6.1   226.9
 03 FEB  3  34:00:00:00     478    4.2      34    0.7      201.0   83.5    8.2  146.2   -6.1   226.4
 03 FEB  3  34:01:00:00     472    7.9      35    1.2      201.0   83.6    8.2  146.2   -6.1   225.8
 03 FEB  3  34:02:00:00     472    8.4      35    0.6      201.0   83.7    8.2  146.2   -6.1   225.3
 03 FEB  3  34:03:00:00     470    6.6      35    0.8      201.1   83.8    8.1  146.2   -6.1   224.7
 03 FEB  3  34:04:00:00     471    6.4      35    0.7      201.1   83.9    8.1  146.2   -6.1   224.2
 03 FEB  3  34:05:00:00     471    6.6      35    0.5      201.1   84.0    8.1  146.2   -6.1   223.6
 03 FEB  3  34:06:00:00     475    5.9      38    0.5      201.1   84.1    8.1  146.2   -6.1   223.1
 03 FEB  3  34:07:00:00     503    6.4      43    2.3      201.2   84.2    8.0  146.2   -6.1   222.5
 03 FEB  3  34:08:00:00     491    6.2      42    0.8      201.2   84.3    8.0  146.2   -6.1   222.0
 03 FEB  3  34:09:00:00     491    7.6      42    1.1      201.2   84.4    8.0  146.2   -6.1   221.4
 03 FEB  3  34:10:00:00     487    7.5      44   -0.8      201.2   84.5    8.0  146.2   -6.1   220.9
 03 FEB  3  34:11:00:00     476    5.9      47   -1.2      201.3   84.6    7.9  146.2   -6.1   220.3
 03 FEB  3  34:12:00:00     472    6.7      44   -0.3      201.3   84.7    7.9  146.2   -6.1   219.8
 03 FEB  3  34:13:00:00     466    6.5      39   -0.3      201.3   84.8    7.9  146.2   -6.1   219.2
 03 FEB  3  34:14:00:00     467    7.8      40    1.0      201.4   84.9    7.9  146.2   -6.2   218.7
 03 FEB  3  34:15:00:00     464    8.2      41   -2.8      201.4   85.0    7.8  146.2   -6.2   218.1
 03 FEB  3  34:16:00:00     468    7.9      40   -2.2      201.4   85.1    7.8  146.2   -6.2   217.6
 03 FEB  3  34:17:00:00     487    9.0      42    0.3      201.4   85.2    7.8  146.2   -6.2   217.0
 03 FEB  3  34:18:00:00     488    8.1      40   -1.1      201.5   85.3    7.8  146.2   -6.2   216.5
 03 FEB  3  34:19:00:00     482    7.6      40   -1.0      201.5   85.4    7.7  146.2   -6.2   215.9
 03 FEB  3  34:20:00:00     479    8.8      42    0.2      201.5   85.5    7.7  146.2   -6.2   215.4
 03 FEB  3  34:21:00:00     499    9.0      40   -0.5      201.5   85.6    7.7  146.2   -6.2   214.8
 03 FEB  3  34:22:00:00     498    9.8      41    1.1      201.6   85.6    7.6  146.2   -6.2   214.3
 03 FEB  3  34:23:00:00     497    9.4      41    0.6      201.6   85.7    7.6  146.2   -6.2   213.7
 03 FEB  4  35:00:00:00     490    9.3      39   -1.9      201.6   85.8    7.6  146.2   -6.2   213.2
 03 FEB  4  35:01:00:00     491   10.0      42   -1.8      201.7   85.9    7.6  146.2   -6.2   212.6
 03 FEB  4  35:02:00:00     532    8.3      50   -1.8      201.7   86.0    7.5  146.2   -6.2   212.1
 03 FEB  4  35:03:00:00     563    8.1      55   -0.5      201.7   86.1    7.5  146.2   -6.2   211.5
 03 FEB  4  35:04:00:00     585    8.6      62    2.0      201.7   86.2    7.5  146.2   -6.2   211.0
 03 FEB  4  35:05:00:00     571    7.9      58   -0.4      201.8   86.3    7.5  146.2   -6.2   210.4
 03 FEB  4  35:06:00:00     573    9.5      69   -3.1      201.8   86.4    7.4  146.2   -6.2   209.9
 03 FEB  4  35:07:00:00     567    8.7      60   -2.8      201.8   86.5    7.4  146.2   -6.2   209.3
 03 FEB  4  35:08:00:00     578    7.0      60    0.6      201.8   86.6    7.4  146.2   -6.2   208.8
 03 FEB  4  35:09:00:00     587    6.1      63    0.6      201.9   86.7    7.4  146.2   -6.2   208.2
 03 FEB  4  35:10:00:00     563    5.2      64   -0.3      201.9   86.8    7.3  146.2   -6.2   207.7
 03 FEB  4  35:11:00:00     582    4.7      63    0.1      201.9   86.8    7.3  146.2   -6.2   207.1
 03 FEB  4  35:12:00:00     648    3.9      77    0.9      202.0   86.9    7.3  146.2   -6.2   206.6
 03 FEB  4  35:13:00:00     635    3.7      66    1.5      202.0   87.0    7.3  146.2   -6.2   206.0
 03 FEB  4  35:14:00:00     628    3.9      67    1.8      202.0   87.1    7.2  146.2   -6.2   205.5
 03 FEB  4  35:15:00:00     609    4.6      68    3.0      202.0   87.2    7.2  146.2   -6.2   204.9
 03 FEB  4  35:16:00:00     582    4.7      65   -0.5      202.1   87.3    7.2  146.2   -6.2   204.4
 03 FEB  4  35:17:00:00     600    4.4      70   -0.6      202.1   87.4    7.2  146.2   -6.2   203.8
 03 FEB  4  35:18:00:00     591    3.4      60    0.2      202.1   87.5    7.1  146.2   -6.2   203.3
 03 FEB  4  35:19:00:00     578    3.0      59   -0.9      202.1   87.6    7.1  146.2   -6.2   202.7
 03 FEB  4  35:20:00:00     588    3.0      61    0.1      202.2   87.6    7.1  146.2   -6.2   202.2
 03 FEB  4  35:21:00:00     572    3.0      55   -0.7      202.2   87.7    7.1  146.2   -6.2   201.6
 03 FEB  4  35:22:00:00     560    2.8      53   -1.6      202.2   87.8    7.0  146.2   -6.2   201.1
 03 FEB  4  35:23:00:00     567    2.3      53   -1.5      202.3   87.9    7.0  146.2   -6.2   200.5
 03 FEB  5  36:00:00:00     570    2.0      54   -1.2      202.3   88.0    7.0  146.2   -6.2   200.0
 03 FEB  5  36:01:00:00     567    1.9      53   -0.9      202.3   88.1    7.0  146.2   -6.2   199.4
 03 FEB  5  36:02:00:00     567    1.8      52   -1.6      202.3   88.2    6.9  146.2   -6.3   198.9
 03 FEB  5  36:03:00:00     571    1.8      50   -1.3      202.4   88.3    6.9  146.2   -6.3   198.3
 03 FEB  5  36:04:00:00     567    1.8      48   -2.1      202.4   88.3    6.9  146.2   -6.3   197.8
 03 FEB  5  36:05:00:00     565    1.8      49   -1.3      202.4   88.4    6.9  146.2   -6.3   197.2
 03 FEB  5  36:06:00:00     574    2.3      52   -1.0      202.5   88.5    6.8  146.2   -6.3   196.7
 03 FEB  5  36:07:00:00     565    2.3      52   -1.0      202.5   88.6    6.8  146.2   -6.3   196.1
 03 FEB  5  36:08:00:00     569    1.8      55   -1.8      202.5   88.7    6.8  146.2   -6.3   195.6
 03 FEB  5  36:09:00:00     578    1.3      58   -1.2      202.5   88.8    6.7  146.2   -6.3   195.0
 03 FEB  5  36:10:00:00     564    3.3      51    1.4      202.6   88.9    6.7  146.2   -6.3   194.5
 03 FEB  5  36:11:00:00     594    3.1      55    0.8      202.6   88.9    6.7  146.2   -6.3   193.9
 03 FEB  5  36:12:00:00     557    2.2      51   -1.5      202.6   89.0    6.7  146.2   -6.3   193.4
 03 FEB  5  36:13:00:00     557    2.1      53   -1.1      202.6   89.1    6.6  146.2   -6.3   192.8
 03 FEB  5  36:14:00:00     564    2.1      51   -0.3      202.7   89.2    6.6  146.2   -6.3   192.3
 03 FEB  5  36:15:00:00     582    2.6      59    1.8      202.7   89.3    6.6  146.2   -6.3   191.7
 03 FEB  5  36:16:00:00     609    2.8      65    1.6      202.7   89.4    6.6  146.2   -6.3   191.2
 03 FEB  5  36:17:00:00     566    2.5      55   -0.3      202.8   89.4    6.5  146.2   -6.3   190.6
 03 FEB  5  36:18:00:00     560    2.3      53    0.6      202.8   89.5    6.5  146.2   -6.3   190.1
 03 FEB  5  36:19:00:00     543    2.3      53    0.5      202.8   89.6    6.5  146.2   -6.3   189.5
 03 FEB  5  36:20:00:00     540    2.7      54    1.9      202.8   89.7    6.5  146.2   -6.3   189.0
 03 FEB  5  36:21:00:00     531    2.9      52    1.6      202.9   89.8    6.4  146.2   -6.3   188.4
 03 FEB  5  36:22:00:00     507    5.2      48    3.9      202.9   89.8    6.4  146.2   -6.3   187.9
 03 FEB  5  36:23:00:00     500    5.2      43    3.8      202.9   89.9    6.4  146.2   -6.3   187.3
 03 FEB  6  37:00:00:00     500    6.8      49    3.1      203.0   90.0    6.4  146.2   -6.3   186.8
 03 FEB  6  37:01:00:00     488    7.6      54    3.5      203.0   90.1    6.3  146.2   -6.3   186.2
 03 FEB  6  37:02:00:00     515   11.8      48    5.7      203.0   90.2    6.3  146.2   -6.3   185.7
 03 FEB  6  37:03:00:00     522   10.8      48    4.9      203.0   90.3    6.3  146.2   -6.3   185.1
 03 FEB  6  37:04:00:00     502   10.6      44    5.3      203.1   90.3    6.3  146.2   -6.3   184.6
 03 FEB  6  37:05:00:00     469    7.6      44    3.3      203.1   90.4    6.2  146.2   -6.3   184.0
 03 FEB  6  37:06:00:00     471    8.9      43    4.4      203.1   90.5    6.2  146.2   -6.3   183.5
 03 FEB  6  37:07:00:00     481   10.0      45    5.6      203.2   90.6    6.2  146.2   -6.3   182.9
 03 FEB  6  37:08:00:00     503    8.6      43    5.3      203.2   90.7    6.1  146.2   -6.3   182.4
 03 FEB  6  37:09:00:00     477    6.4      46    2.0      203.2   90.7    6.1  146.2   -6.3   181.8
 03 FEB  6  37:10:00:00     491    6.8      47    2.4      203.2   90.8    6.1  146.2   -6.3   181.3
 03 FEB  6  37:11:00:00     502    7.4      49    3.0      203.3   90.9    6.1  146.2   -6.3   180.7
 03 FEB  6  37:12:00:00     486    5.9      48    1.8      203.3   91.0    6.0  146.2   -6.3   180.2
 03 FEB  6  37:13:00:00     504    8.0      44    4.6      203.3   91.0    6.0  146.2   -6.3   179.6
 03 FEB  6  37:14:00:00     489    6.1      41    2.4      203.4   91.1    6.0  146.2   -6.3   179.1
 03 FEB  6  37:15:00:00     494    5.8      40    3.1      203.4   91.2    6.0  146.2   -6.4   178.5
 03 FEB  6  37:16:00:00     504    5.7      42    2.7      203.4   91.3    5.9  146.2   -6.4   178.0
 03 FEB  6  37:17:00:00     491    5.5      42    1.0      203.5   91.4    5.9  146.2   -6.4   177.4
 03 FEB  6  37:18:00:00     489    5.1      41    1.5      203.5   91.4    5.9  146.2   -6.4   176.9
 03 FEB  6  37:19:00:00     496    5.8      43    2.6      203.5   91.5    5.9  146.2   -6.4   176.3
 03 FEB  6  37:20:00:00     478    4.7      50    1.2      203.5   91.6    5.8  146.2   -6.4   175.8
 03 FEB  6  37:21:00:00     479    5.9      54    2.7      203.6   91.7    5.8  146.2   -6.4   175.2
 03 FEB  6  37:22:00:00     503    4.9      48    0.8      203.6   91.7    5.8  146.2   -6.4   174.7
 03 FEB  6  37:23:00:00     528    4.3      58    1.6      203.6   91.8    5.8  146.2   -6.4   174.1
 03 FEB  7  38:00:00:00     532    3.7      47    0.6      203.7   91.9    5.7  146.2   -6.4   173.6
 03 FEB  7  38:01:00:00     498    5.0      46    3.8      203.7   92.0    5.7  146.2   -6.4   173.0
 03 FEB  7  38:02:00:00     493    4.0      39    2.4      203.7   92.0    5.7  146.2   -6.4   172.5
 03 FEB  7  38:03:00:00     489    6.2      42    4.6      203.7   92.1    5.6  146.2   -6.4   171.9
 03 FEB  7  38:04:00:00     491    5.1      52    4.0      203.8   92.2    5.6  146.2   -6.4   171.4
 03 FEB  7  38:05:00:00     475    5.0      47    3.1      203.8   92.3    5.6  146.2   -6.4   170.8
 03 FEB  7  38:06:00:00     492    2.9      43    0.2      203.8   92.3    5.6  146.2   -6.4   170.3
 03 FEB  7  38:07:00:00     499    3.2      45    0.9      203.9   92.4    5.5  146.2   -6.4   169.7
 03 FEB  7  38:08:00:00     487    3.4      40    1.6      203.9   92.5    5.5  146.2   -6.4   169.2
 03 FEB  7  38:09:00:00     508    3.1      43    0.8      203.9   92.5    5.5  146.2   -6.4   168.6
 03 FEB  7  38:10:00:00     534    3.1      43    2.0      204.0   92.6    5.5  146.2   -6.4   168.1
 03 FEB  7  38:11:00:00     475    3.0      36   -0.3      204.0   92.7    5.4  146.2   -6.4   167.5
 03 FEB  7  38:12:00:00     467    3.8      37    2.2      204.0   92.8    5.4  146.2   -6.4   167.0
 03 FEB  7  38:13:00:00     490    4.2      41    2.5      204.0   92.8    5.4  146.2   -6.4   166.4
 03 FEB  7  38:14:00:00     498    5.1      42    4.2      204.1   92.9    5.4  146.2   -6.4   165.9
 03 FEB  7  38:15:00:00     489    4.9      42    3.6      204.1   93.0    5.3  146.2   -6.4   165.3
 03 FEB  7  38:16:00:00     493    6.1      42    5.0      204.1   93.0    5.3  146.2   -6.4   164.8
 03 FEB  7  38:17:00:00     488    3.9      39    0.0      204.2   93.1    5.3  146.2   -6.4   164.2
 03 FEB  7  38:18:00:00     497    4.2      40    1.4      204.2   93.2    5.3  146.2   -6.4   163.7
 03 FEB  7  38:19:00:00     493    4.4      42    2.8      204.2   93.3    5.2  146.2   -6.4   163.1
 03 FEB  7  38:20:00:00     499    5.4      47    4.4      204.3   93.3    5.2  146.3   -6.4   162.6
 03 FEB  7  38:21:00:00     492    4.9      42    3.9      204.3   93.4    5.2  146.3   -6.4   162.0
 03 FEB  7  38:22:00:00     485    3.2      38    0.4      204.3   93.5    5.1  146.3   -6.4   161.5
 03 FEB  7  38:23:00:00     503    3.0      41    0.6      204.3   93.5    5.1  146.3   -6.4   160.9
 03 FEB  8  39:00:00:00     494    3.6      43    2.0      204.4   93.6    5.1  146.3   -6.4   160.4
 03 FEB  8  39:01:00:00     500    2.9      44    0.2      204.4   93.7    5.1  146.3   -6.4   159.8
 03 FEB  8  39:02:00:00     507    3.0      43   -0.4      204.4   93.7    5.0  146.3   -6.4   159.3
 03 FEB  8  39:03:00:00     480    3.0      44    0.1      204.5   93.8    5.0  146.3   -6.4   158.7
 03 FEB  8  39:04:00:00     494    4.2      47    4.3      204.5   93.9    5.0  146.3   -6.4   158.2
 03 FEB  8  39:05:00:00     475    3.3      42    1.6      204.5   93.9    5.0  146.3   -6.4   157.6
 03 FEB  8  39:06:00:00     508    3.8      42   -5.1      204.6   94.0    4.9  146.3   -6.4   157.1
 03 FEB  8  39:07:00:00     493    3.5      39   -1.5      204.6   94.1    4.9  146.3   -6.5   156.5
 03 FEB  8  39:08:00:00     507    4.1      41    2.3      204.6   94.1    4.9  146.3   -6.5   156.0
 03 FEB  8  39:09:00:00     479    4.2      37   -3.4      204.7   94.2    4.9  146.3   -6.5   155.4
 03 FEB  8  39:10:00:00     471    3.7      38   -2.1      204.7   94.3    4.8  146.3   -6.5   154.9
 03 FEB  8  39:11:00:00     473    4.0      37   -3.4      204.7   94.3    4.8  146.3   -6.5   154.3
 03 FEB  8  39:12:00:00     468    3.8      39   -3.3      204.7   94.4    4.8  146.3   -6.5   153.8
 03 FEB  8  39:13:00:00     481    4.8      39    1.0      204.8   94.5    4.7  146.3   -6.5   153.2
 03 FEB  8  39:14:00:00     495    4.4      39    1.9      204.8   94.5    4.7  146.3   -6.5   152.7
 03 FEB  8  39:15:00:00     480    4.4      38    0.4      204.8   94.6    4.7  146.3   -6.5   152.1
 03 FEB  8  39:16:00:00     471    4.3      39    0.0      204.9   94.7    4.7  146.3   -6.5   151.6
 03 FEB  8  39:17:00:00     493    4.1      48    0.8      204.9   94.7    4.6  146.3   -6.5   151.0
 03 FEB  8  39:18:00:00     502    5.3      45    2.8      204.9   94.8    4.6  146.3   -6.5   150.5
 03 FEB  8  39:19:00:00     498    3.9      52   -1.2      205.0   94.9    4.6  146.3   -6.5   149.9
 03 FEB  8  39:20:00:00     473    4.1      51    1.5      205.0   94.9    4.6  146.3   -6.5   149.4
 03 FEB  8  39:21:00:00     490    3.8      45   -0.1      205.0   95.0    4.5  146.3   -6.5   148.8
 03 FEB  8  39:22:00:00     474    3.6      47    0.4      205.1   95.0    4.5  146.3   -6.5   148.3
 03 FEB  8  39:23:00:00     500    4.3      47   -1.3      205.1   95.1    4.5  146.3   -6.5   147.7
 03 FEB  9  40:00:00:00     473    4.1      43    1.1      205.1   95.2    4.5  146.3   -6.5   147.2
 03 FEB  9  40:01:00:00     471    4.4      40    1.5      205.2   95.2    4.4  146.3   -6.5   146.6
 03 FEB  9  40:02:00:00     481    6.5      38    5.1      205.2   95.3    4.4  146.3   -6.5   146.1
 03 FEB  9  40:03:00:00     476    6.2      38    3.9      205.2   95.4    4.4  146.3   -6.5   145.5
 03 FEB  9  40:04:00:00     463    4.5      37   -1.1      205.3   95.4    4.3  146.3   -6.5   145.0
 03 FEB  9  40:05:00:00     468    4.7      39   -0.3      205.3   95.5    4.3  146.3   -6.5   144.4
 03 FEB  9  40:06:00:00     463    4.7      36   -0.6      205.3   95.5    4.3  146.3   -6.5   143.9
 03 FEB  9  40:07:00:00     454    4.4      37   -1.2      205.3   95.6    4.3  146.3   -6.5   143.3
 03 FEB  9  40:08:00:00     453    4.3      36    0.4      205.4   95.7    4.2  146.3   -6.5   142.8
 03 FEB  9  40:09:00:00     461    4.9      35    1.7      205.4   95.7    4.2  146.3   -6.5   142.2
 03 FEB  9  40:10:00:00     447    4.5      37    1.8      205.4   95.8    4.2  146.3   -6.5   141.7
 03 FEB  9  40:11:00:00     451    5.2      37    0.8      205.5   95.8    4.2  146.3   -6.5   141.1
 03 FEB  9  40:12:00:00     462    6.1      35    1.4      205.5   95.9    4.1  146.3   -6.5   140.6
 03 FEB  9  40:13:00:00     469    7.4      37   -2.1      205.5   96.0    4.1  146.3   -6.5   140.0
 03 FEB  9  40:14:00:00     452    6.4      38   -0.6      205.6   96.0    4.1  146.3   -6.5   139.5
 03 FEB  9  40:15:00:00     460    9.0      36   -3.9      205.6   96.1    4.0  146.3   -6.5   138.9
 03 FEB  9  40:16:00:00     453    8.3      35   -2.3      205.6   96.1    4.0  146.3   -6.5   138.4
 03 FEB  9  40:17:00:00     454    7.5      35   -1.8      205.7   96.2    4.0  146.3   -6.5   137.8
 03 FEB  9  40:18:00:00     463    7.1      34   -0.5      205.7   96.2    4.0  146.3   -6.5   137.3
 03 FEB  9  40:19:00:00     451    7.4      35    0.9      205.7   96.3    3.9  146.3   -6.5   136.7
 03 FEB  9  40:20:00:00     430    5.7      37   -0.9      205.8   96.4    3.9  146.3   -6.5   136.2
 03 FEB  9  40:21:00:00     440    6.8      36    0.9      205.8   96.4    3.9  146.3   -6.5   135.6
 03 FEB  9  40:22:00:00     437    6.6      36   -1.9      205.8   96.5    3.9  146.3   -6.5   135.1
 03 FEB  9  40:23:00:00     433    5.3      35   -2.0      205.9   96.5    3.8  146.3   -6.5   134.5
 03 FEB 10  41:00:00:00     443    4.9      34   -1.8      205.9   96.6    3.8  146.3   -6.6   134.0
 03 FEB 10  41:01:00:00     440    5.4      36   -1.0      205.9   96.6    3.8  146.3   -6.6   133.4
 03 FEB 10  41:02:00:00     435    5.1      38    0.1      206.0   96.7    3.8  146.3   -6.6   132.9
 03 FEB 10  41:03:00:00     447    6.6      42   -0.5      206.0   96.8    3.7  146.3   -6.6   132.3
 03 FEB 10  41:04:00:00     441    6.6      40   -1.2      206.0   96.8    3.7  146.3   -6.6   131.8
 03 FEB 10  41:05:00:00     437    5.6      42   -0.9      206.1   96.9    3.7  146.3   -6.6   131.2
 03 FEB 10  41:06:00:00     429    5.5      40   -0.2      206.1   96.9    3.6  146.3   -6.6   130.7
 03 FEB 10  41:07:00:00     437    6.0      39    1.0      206.1   97.0    3.6  146.3   -6.6   130.1
 03 FEB 10  41:08:00:00     432    4.7      39   -0.3      206.2   97.0    3.6  146.3   -6.6   129.6
 03 FEB 10  41:09:00:00     428    5.0      39    0.0      206.2   97.1    3.6  146.3   -6.6   129.0
 03 FEB 10  41:10:00:00     434    4.8      38   -0.2      206.2   97.1    3.5  146.3   -6.6   128.5
 03 FEB 10  41:11:00:00     428    4.6      39   -0.1      206.3   97.2    3.5  146.3   -6.6   127.9
 03 FEB 10  41:12:00:00     440    4.7      40    0.3      206.3   97.2    3.5  146.3   -6.6   127.4
 03 FEB 10  41:13:00:00     437    5.0      40    0.8      206.3   97.3    3.5  146.3   -6.6   126.8
 03 FEB 10  41:14:00:00     439    5.0      39    0.4      206.4   97.3    3.4  146.3   -6.6   126.3
 03 FEB 10  41:15:00:00     437    4.4      40    0.2      206.4   97.4    3.4  146.3   -6.6   125.7
 03 FEB 10  41:16:00:00     422    4.8      38    0.8      206.4   97.4    3.4  146.3   -6.6   125.2
 03 FEB 10  41:17:00:00     430    5.5      39    0.6      206.5   97.5    3.3  146.3   -6.6   124.6
 03 FEB 10  41:18:00:00     441    5.7      40    0.6      206.5   97.5    3.3  146.3   -6.6   124.1
 03 FEB 10  41:19:00:00     437    5.8      40    0.2      206.6   97.6    3.3  146.3   -6.6   123.5
 03 FEB 10  41:20:00:00     439    6.0      40    1.0      206.6   97.6    3.3  146.3   -6.6   123.0
 03 FEB 10  41:21:00:00     442    5.3      39    0.0      206.6   97.7    3.2  146.3   -6.6   122.4
 03 FEB 10  41:22:00:00     438    6.0      40    0.1      206.7   97.7    3.2  146.3   -6.6   121.9
 03 FEB 10  41:23:00:00     437    5.4      38    0.2      206.7   97.8    3.2  146.3   -6.6   121.3
 03 FEB 11  42:00:00:00     428    4.8      38   -0.8      206.7   97.8    3.2  146.3   -6.6   120.8
 03 FEB 11  42:01:00:00     424    5.3      38    0.1      206.8   97.9    3.1  146.3   -6.6   120.2
 03 FEB 11  42:02:00:00     416    5.7      36    0.1      206.8   97.9    3.1  146.3   -6.6   119.7
 03 FEB 11  42:03:00:00     414    5.8      36   -0.5      206.8   98.0    3.1  146.3   -6.6   119.1
 03 FEB 11  42:04:00:00     410    5.9      35   -1.1      206.9   98.0    3.0  146.3   -6.6   118.6
 03 FEB 11  42:05:00:00     406    5.9      34   -1.7      206.9   98.1    3.0  146.3   -6.6   118.0
 03 FEB 11  42:06:00:00     424    6.1      37   -0.3      206.9   98.1    3.0  146.3   -6.6   117.5
 03 FEB 11  42:07:00:00     399    7.3      38   -1.5      207.0   98.2    3.0  146.3   -6.6   116.9
 03 FEB 11  42:08:00:00     404    8.2      33    0.0      207.0   98.2    2.9  146.3   -6.6   116.4
 03 FEB 11  42:09:00:00     406    7.5      33    0.5      207.0   98.3    2.9  146.3   -6.6   115.8
 03 FEB 11  42:10:00:00     411    7.7      36    1.0      207.1   98.3    2.9  146.3   -6.6   115.3
 03 FEB 11  42:11:00:00     415    6.2      36   -0.9      207.1   98.4    2.9  146.3   -6.6   114.7
 03 FEB 11  42:12:00:00     415    5.8      36   -0.6      207.2   98.4    2.8  146.3   -6.6   114.2
 03 FEB 11  42:13:00:00     412    5.6      36   -0.5      207.2   98.5    2.8  146.3   -6.6   113.6
 03 FEB 11  42:14:00:00     405    6.1      34   -0.5      207.2   98.5    2.8  146.3   -6.6   113.1
 03 FEB 11  42:15:00:00     399    6.5      33   -0.6      207.3   98.5    2.7  146.3   -6.6   112.5
 03 FEB 11  42:16:00:00     405    6.0      34   -1.8      207.3   98.6    2.7  146.3   -6.6   112.0
 03 FEB 11  42:17:00:00     378    5.3      32   -0.2      207.3   98.6    2.7  146.3   -6.6   111.4
 03 FEB 11  42:18:00:00     377    5.0      33   -0.5      207.4   98.7    2.7  146.3   -6.6   110.9
 03 FEB 11  42:19:00:00     373    6.7      33   -2.1      207.4   98.7    2.6  146.3   -6.6   110.3
 03 FEB 11  42:20:00:00     371    6.5      33   -2.3      207.4   98.8    2.6  146.3   -6.7   109.8
 03 FEB 11  42:21:00:00     370    4.8      35   -1.4      207.5   98.8    2.6  146.3   -6.7   109.2
 03 FEB 11  42:22:00:00     371    5.2      34   -1.1      207.5   98.9    2.6  146.3   -6.7   108.7
 03 FEB 11  42:23:00:00     367    5.3      33   -1.1      207.6   98.9    2.5  146.3   -6.7   108.1
 03 FEB 12  43:00:00:00     362    5.4      31   -0.2      207.6   98.9    2.5  146.3   -6.7   107.6
 03 FEB 12  43:01:00:00     368    7.5      29   -0.5      207.6   99.0    2.5  146.3   -6.7   107.0
 03 FEB 12  43:02:00:00     363    7.0      29   -1.0      207.7   99.0    2.4  146.3   -6.7   106.5
 03 FEB 12  43:03:00:00     368    7.1      30    0.3      207.7   99.1    2.4  146.3   -6.7   105.9
 03 FEB 12  43:04:00:00     376    8.2      29   -0.3      207.7   99.1    2.4  146.3   -6.7   105.4
 03 FEB 12  43:05:00:00     385    8.6      30   -1.9      207.8   99.1    2.4  146.3   -6.7   104.8
 03 FEB 12  43:06:00:00     383    9.6      30   -0.1      207.8   99.2    2.3  146.3   -6.7   104.3
 03 FEB 12  43:07:00:00     389   10.1      31    0.8      207.9   99.2    2.3  146.3   -6.7   103.7
 03 FEB 12  43:08:00:00     379   11.6      31    1.4      207.9   99.3    2.3  146.3   -6.7   103.2
 03 FEB 12  43:09:00:00     372   13.1      32    0.8      207.9   99.3    2.3  146.3   -6.7   102.6
 03 FEB 12  43:10:00:00     363   11.2      32    0.5      208.0   99.3    2.2  146.3   -6.7   102.1
 03 FEB 12  43:11:00:00     357   10.2      30   -0.4      208.0   99.4    2.2  146.3   -6.7   101.5
 03 FEB 12  43:12:00:00     359   10.9      30   -0.1      208.0   99.4    2.2  146.3   -6.7   101.0
 03 FEB 12  43:13:00:00     358   11.5      29   -1.2      208.1   99.5    2.1  146.3   -6.7   100.4
 03 FEB 12  43:14:00:00     369   10.3      26   -3.7      208.1   99.5    2.1  146.3   -6.7    99.9
 03 FEB 12  43:15:00:00     362    9.3      29   -3.0      208.2   99.5    2.1  146.3   -6.7    99.3
 03 FEB 12  43:16:00:00     355   11.6      28   -1.9      208.2   99.6    2.1  146.3   -6.7    98.8
 03 FEB 12  43:17:00:00     354   10.9      29   -2.8      208.2   99.6    2.0  146.4   -6.7    98.2
 03 FEB 12  43:18:00:00     355   12.7      27   -1.6      208.3   99.7    2.0  146.4   -6.7    97.7
 03 FEB 12  43:19:00:00     354   14.2      29   -2.5      208.3   99.7    2.0  146.4   -6.7    97.1
 03 FEB 12  43:20:00:00     355   16.3      25   -5.2      208.4   99.7    2.0  146.4   -6.7    96.6
 03 FEB 12  43:21:00:00     371   16.7      28   -4.3      208.4   99.8    1.9  146.4   -6.7    96.0
 03 FEB 12  43:22:00:00     362   12.9      29   -2.0      208.4   99.8    1.9  146.4   -6.7    95.5
 03 FEB 12  43:23:00:00     360   10.8      26   -2.4      208.5   99.8    1.9  146.4   -6.7    94.9
 03 FEB 13  44:00:00:00     363   10.9      24   -3.7      208.5   99.9    1.8  146.4   -6.7    94.4
 03 FEB 13  44:01:00:00     358   12.7      22   -5.3      208.5   99.9    1.8  146.4   -6.7    93.8
 03 FEB 13  44:02:00:00     367    9.1      26   -2.3      208.6  100.0    1.8  146.4   -6.7    93.3
 03 FEB 13  44:03:00:00     386   12.3      27   -6.1      208.6  100.0    1.8  146.4   -6.7    92.7
 03 FEB 13  44:04:00:00     400   10.1      28   -5.7      208.7  100.0    1.7  146.4   -6.7    92.2
 03 FEB 13  44:05:00:00     368   12.8      24   -4.5      208.7  100.1    1.7  146.4   -6.7    91.6
 03 FEB 13  44:06:00:00     357   12.0      22   -3.9      208.7  100.1    1.7  146.4   -6.7    91.1
 03 FEB 13  44:07:00:00     363   11.8      22   -4.1      208.8  100.1    1.7  146.4   -6.7    90.5
 03 FEB 13  44:08:00:00     364   15.2      22   -4.8      208.8  100.2    1.6  146.4   -6.7    90.0
 03 FEB 13  44:09:00:00     369   11.7      25   -1.8      208.9  100.2    1.6  146.4   -6.7    89.4
 03 FEB 13  44:10:00:00     385   14.6      32   -2.5      208.9  100.2    1.6  146.4   -6.7    88.9
 03 FEB 13  44:11:00:00     386   10.4      35   -1.0      208.9  100.3    1.5  146.4   -6.7    88.3
 03 FEB 13  44:12:00:00     393    8.5      37   -0.2      209.0  100.3    1.5  146.4   -6.7    87.8
 03 FEB 13  44:13:00:00     390    8.5      38   -0.8      209.0  100.3    1.5  146.4   -6.7    87.2
 03 FEB 13  44:14:00:00     393    7.8      40   -0.8      209.1  100.4    1.5  146.4   -6.7    86.7
 03 FEB 13  44:15:00:00     383    7.8      39    1.1      209.1  100.4    1.4  146.4   -6.7    86.1
 03 FEB 13  44:16:00:00     397    9.5      40    2.6      209.1  100.4    1.4  146.4   -6.7    85.6
 03 FEB 13  44:17:00:00     386   11.5      38    4.1      209.2  100.5    1.4  146.4   -6.7    85.1
 03 FEB 13  44:18:00:00     392   11.1      38    2.9      209.2  100.5    1.3  146.4   -6.7    84.5
 03 FEB 13  44:19:00:00     394   12.6      38    4.1      209.3  100.5    1.3  146.4   -6.7    84.0
 03 FEB 13  44:20:00:00     398   14.5      36    5.5      209.3  100.5    1.3  146.4   -6.8    83.4
 03 FEB 13  44:21:00:00     391   14.7      35    5.6      209.4  100.6    1.3  146.4   -6.8    82.9
 03 FEB 13  44:22:00:00     389   14.0      30    5.8      209.4  100.6    1.2  146.4   -6.8    82.3
 03 FEB 13  44:23:00:00     378   11.2      30    3.6      209.4  100.6    1.2  146.4   -6.8    81.8
 03 FEB 14  45:00:00:00     388   10.9      33    3.7      209.5  100.7    1.2  146.4   -6.8    81.2
 03 FEB 14  45:01:00:00     397   12.6      35    3.8      209.5  100.7    1.2  146.4   -6.8    80.7
 03 FEB 14  45:02:00:00     400   18.0      37    6.6      209.6  100.7    1.1  146.4   -6.8    80.1
 03 FEB 14  45:03:00:00     390   10.6      33    1.9      209.6  100.8    1.1  146.4   -6.8    79.6
 03 FEB 14  45:04:00:00     414   10.8      37    1.8      209.6  100.8    1.1  146.4   -6.8    79.0
 03 FEB 14  45:05:00:00     399   10.3      33    2.1      209.7  100.8    1.0  146.4   -6.8    78.5
 03 FEB 14  45:06:00:00     411   11.2      34    2.6      209.7  100.8    1.0  146.4   -6.8    77.9
 03 FEB 14  45:07:00:00     420   14.1      35    3.0      209.8  100.9    1.0  146.4   -6.8    77.4
 03 FEB 14  45:08:00:00     438   18.7      36    5.2      209.8  100.9    1.0  146.4   -6.8    76.8
 03 FEB 14  45:09:00:00     433   16.7      39    3.3      209.9  100.9    0.9  146.4   -6.8    76.3
 03 FEB 14  45:10:00:00     444   18.4      38    4.4      209.9  100.9    0.9  146.4   -6.8    75.7
 03 FEB 14  45:11:00:00     445   11.4      37   -1.0      209.9  101.0    0.9  146.4   -6.8    75.2
 03 FEB 14  45:12:00:00     469   13.0      46    1.6      210.0  101.0    0.8  146.4   -6.8    74.6
 03 FEB 14  45:13:00:00     481   10.6      48   -0.9      210.0  101.0    0.8  146.4   -6.8    74.1
 03 FEB 14  45:14:00:00     483   10.0      46   -1.8      210.1  101.1    0.8  146.4   -6.8    73.5
 03 FEB 14  45:15:00:00     504   10.6      47    0.9      210.1  101.1    0.8  146.4   -6.8    73.0
 03 FEB 14  45:16:00:00     491    9.8      44    0.5      210.2  101.1    0.7  146.4   -6.8    72.4
 03 FEB 14  45:17:00:00     498    9.6      42   -3.7      210.2  101.1    0.7  146.4   -6.8    71.9
 03 FEB 14  45:18:00:00     499    7.7      41   -0.2      210.2  101.2    0.7  146.4   -6.8    71.3
 03 FEB 14  45:19:00:00     484    9.9      37   -4.6      210.3  101.2    0.7  146.4   -6.8    70.8
 03 FEB 14  45:20:00:00     475    9.4      39   -3.3      210.3  101.2    0.6  146.4   -6.8    70.2
 03 FEB 14  45:21:00:00     490   10.9      46    1.9      210.4  101.2    0.6  146.4   -6.8    69.7
 03 FEB 14  45:22:00:00     485   10.9      45    1.0      210.4  101.3    0.6  146.4   -6.8    69.1
 03 FEB 14  45:23:00:00     486   11.3      49   -0.4      210.5  101.3    0.5  146.4   -6.8    68.6
 03 FEB 15  46:00:00:00     497   11.9      49    0.0      210.5  101.3    0.5  146.4   -6.8    68.0
 03 FEB 15  46:01:00:00     498   13.1      55    3.2      210.5  101.3    0.5  146.4   -6.8    67.5
 03 FEB 15  46:02:00:00     515   12.3      51   -2.6      210.6  101.3    0.5  146.4   -6.8    66.9
 03 FEB 15  46:03:00:00     531   11.6      53    0.4      210.6  101.4    0.4  146.4   -6.8    66.4
 03 FEB 15  46:04:00:00     524   11.4      54   -2.3      210.7  101.4    0.4  146.4   -6.8    65.8
 03 FEB 15  46:05:00:00     550    9.3      55    0.1      210.7  101.4    0.4  146.4   -6.8    65.3
 03 FEB 15  46:06:00:00     589    8.7      68    0.2      210.8  101.4    0.3  146.4   -6.8    64.7
 03 FEB 15  46:07:00:00     613    7.6      68    0.2      210.8  101.5    0.3  146.4   -6.8    64.2
 03 FEB 15  46:08:00:00     630    7.9      63    2.5      210.9  101.5    0.3  146.4   -6.8    63.6
 03 FEB 15  46:09:00:00     621    6.4      64   -0.8      210.9  101.5    0.3  146.4   -6.8    63.1
 03 FEB 15  46:10:00:00     615    6.3      67    0.9      210.9  101.5    0.2  146.4   -6.8    62.5
 03 FEB 15  46:11:00:00     605    5.7      59    1.0      211.0  101.5    0.2  146.4   -6.8    62.0
 03 FEB 15  46:12:00:00     589    5.3      57    0.7      211.0  101.6    0.2  146.4   -6.8    61.4
 03 FEB 15  46:13:00:00     589    5.5      52    0.7      211.1  101.6    0.2  146.4   -6.8    60.9
 03 FEB 15  46:14:00:00     585    5.6      55    1.7      211.1  101.6    0.1  146.4   -6.8    60.3
 03 FEB 15  46:15:00:00     574    5.2      53   -0.1      211.2  101.6    0.1  146.4   -6.8    59.8
 03 FEB 15  46:16:00:00     566    6.2      52    1.9      211.2  101.6    0.1  146.4   -6.8    59.2
 03 FEB 15  46:17:00:00     574    4.9      49    0.1      211.3  101.7    0.0  146.4   -6.8    58.7
 03 FEB 15  46:18:00:00     556    4.6      52   -0.4      211.3  101.7    0.0  146.4   -6.8    58.1
 03 FEB 15  46:19:00:00     554    4.3      50   -1.4      211.4  101.7    0.0  146.4   -6.8    57.6
 03 FEB 15  46:20:00:00     574    4.9      51    2.1      211.4  101.7    0.0  146.4   -6.8    57.0
 03 FEB 15  46:21:00:00     573    4.8      50    1.0      211.4  101.7   -0.1  146.4   -6.8    56.5
 03 FEB 15  46:22:00:00     573    4.5      47   -0.4      211.5  101.8   -0.1  146.4   -6.8    55.9
 03 FEB 15  46:23:00:00     582    4.8      47    0.9      211.5  101.8   -0.1  146.4   -6.8    55.4
 03 FEB 16  47:00:00:00     568    4.2      53   -1.7      211.6  101.8   -0.2  146.4   -6.9    54.8
 03 FEB 16  47:01:00:00     563    4.8      51   -0.6      211.6  101.8   -0.2  146.4   -6.9    54.3
 03 FEB 16  47:02:00:00     577    5.0      52    0.1      211.7  101.8   -0.2  146.4   -6.9    53.7
 03 FEB 16  47:03:00:00     595    5.6      51    1.5      211.7  101.8   -0.2  146.4   -6.9    53.2
 03 FEB 16  47:04:00:00     597    5.9      51    2.0      211.8  101.9   -0.3  146.4   -6.9    52.6
 03 FEB 16  47:05:00:00     607    6.5      58    1.0      211.8  101.9   -0.3  146.4   -6.9    52.1
 03 FEB 16  47:06:00:00     609    6.4      52   -0.2      211.9  101.9   -0.3  146.4   -6.9    51.5
 03 FEB 16  47:07:00:00     595    6.5      50    0.6      211.9  101.9   -0.3  146.4   -6.9    51.0
 03 FEB 16  47:08:00:00     603    5.7      61    0.2      212.0  101.9   -0.4  146.4   -6.9    50.4
 03 FEB 16  47:09:00:00     608    7.1      70    0.1      212.0  101.9   -0.4  146.4   -6.9    49.9
 03 FEB 16  47:10:00:00     623    6.4      58   -0.7      212.1  102.0   -0.4  146.4   -6.9    49.3
 03 FEB 16  47:11:00:00     609    5.7      53    0.5      212.1  102.0   -0.5  146.4   -6.9    48.8
 03 FEB 16  47:12:00:00     625    5.7      64    0.0      212.1  102.0   -0.5  146.4   -6.9    48.2
 03 FEB 16  47:13:00:00     618    5.7      65   -0.2      212.2  102.0   -0.5  146.4   -6.9    47.7
 03 FEB 16  47:14:00:00     614    5.8      53   -1.1      212.2  102.0   -0.5  146.4   -6.9    47.1
 03 FEB 16  47:15:00:00     604    5.7      52    1.0      212.3  102.0   -0.6  146.4   -6.9    46.6
 03 FEB 16  47:16:00:00     608    5.1      53   -0.2      212.3  102.0   -0.6  146.4   -6.9    46.0
 03 FEB 16  47:17:00:00     596    4.9      50    0.0      212.4  102.1   -0.6  146.4   -6.9    45.5
 03 FEB 16  47:18:00:00     600    4.8      53   -0.3      212.4  102.1   -0.7  146.4   -6.9    44.9
 03 FEB 16  47:19:00:00     603    4.5      59   -0.8      212.5  102.1   -0.7  146.4   -6.9    44.4
 03 FEB 16  47:20:00:00     641    4.5      68   -0.4      212.5  102.1   -0.7  146.4   -6.9    43.8
 03 FEB 16  47:21:00:00     610    4.5      65   -0.2      212.6  102.1   -0.7  146.4   -6.9    43.3
 03 FEB 16  47:22:00:00     586    5.2      65    0.4      212.6  102.1   -0.8  146.4   -6.9    42.7
 03 FEB 16  47:23:00:00     576    4.6      57    0.0      212.7  102.1   -0.8  146.4   -6.9    42.2
 03 FEB 17  48:00:00:00     589    3.3      59   -0.3      212.7  102.1   -0.8  146.4   -6.9    41.6
 03 FEB 17  48:01:00:00     595    3.0      51   -0.5      212.8  102.2   -0.9  146.4   -6.9    41.1
 03 FEB 17  48:02:00:00     585    3.1      49    0.8      212.8  102.2   -0.9  146.4   -6.9    40.5
 03 FEB 17  48:03:00:00     599    2.8      53    0.4      212.9  102.2   -0.9  146.4   -6.9    40.0
 03 FEB 17  48:04:00:00     588    2.8      51   -0.2      212.9  102.2   -0.9  146.4   -6.9    39.4
 03 FEB 17  48:05:00:00     583    2.9      46   -0.5      213.0  102.2   -1.0  146.5   -6.9    38.9
 03 FEB 17  48:06:00:00     608    4.3      55    0.2      213.0  102.2   -1.0  146.5   -6.9    38.3
 03 FEB 17  48:07:00:00     626    4.7      57   -2.0      213.1  102.2   -1.0  146.5   -6.9    37.8
 03 FEB 17  48:08:00:00     627    5.1      56    0.7      213.1  102.2   -1.1  146.5   -6.9    37.2
 03 FEB 17  48:09:00:00     641    4.3      57    0.0      213.2  102.2   -1.1  146.5   -6.9    36.7
 03 FEB 17  48:10:00:00     603    4.4      52    0.9      213.2  102.3   -1.1  146.5   -6.9    36.1
 03 FEB 17  48:11:00:00     603    4.7      50    1.4      213.3  102.3   -1.1  146.5   -6.9    35.6
 03 FEB 17  48:12:00:00     606    4.5      50   -0.3      213.3  102.3   -1.2  146.5   -6.9    35.0
 03 FEB 17  48:13:00:00     614    4.6      52    0.9      213.4  102.3   -1.2  146.5   -6.9    34.5
 03 FEB 17  48:14:00:00     612    5.2      52   -2.7      213.4  102.3   -1.2  146.5   -6.9    33.9
 03 FEB 17  48:15:00:00     605    4.3      50   -0.6      213.5  102.3   -1.2  146.5   -6.9    33.4
 03 FEB 17  48:16:00:00     604    3.9      49   -0.4      213.5  102.3   -1.3  146.5   -6.9    32.8
 03 FEB 17  48:17:00:00     590    4.2      46   -0.9      213.6  102.3   -1.3  146.5   -6.9    32.3
 03 FEB 17  48:18:00:00     608    4.6      55    0.8      213.6  102.3   -1.3  146.5   -6.9    31.7
 03 FEB 17  48:19:00:00     620    4.3      55    0.0      213.7  102.3   -1.4  146.5   -6.9    31.2
 03 FEB 17  48:20:00:00     602    4.7      52   -0.1      213.7  102.3   -1.4  146.5   -6.9    30.6
 03 FEB 17  48:21:00:00     598    4.7      49    0.9      213.8  102.4   -1.4  146.5   -6.9    30.1
 03 FEB 17  48:22:00:00     615    6.5      54   -1.6      213.8  102.4   -1.4  146.5   -6.9    29.5
 03 FEB 17  48:23:00:00     717    8.6      58   -2.0      213.9  102.4   -1.5  146.5   -6.9    29.0
 03 FEB 18  49:00:00:00     717    8.6      58   -0.7      213.9  102.4   -1.5  146.5   -6.9    28.4
 03 FEB 18  49:01:00:00     678    9.1      57   -0.1      214.0  102.4   -1.5  146.5   -6.9    27.9
 03 FEB 18  49:02:00:00     669    8.7      56    0.4      214.0  102.4   -1.6  146.5   -6.9    27.3
 03 FEB 18  49:03:00:00     670    6.7      58   -2.7      214.1  102.4   -1.6  146.5   -6.9    26.8
 03 FEB 18  49:04:00:00     742    8.9      72   -0.9      214.1  102.4   -1.6  146.5   -6.9    26.2
 03 FEB 18  49:05:00:00     736   13.4      72   -0.4      214.2  102.4   -1.6  146.5   -6.9    25.7
 03 FEB 18  49:06:00:00     676    6.2      67   -1.9      214.2  102.4   -1.7  146.5   -6.9    25.1
 03 FEB 18  49:07:00:00     673    7.4      66   -1.3      214.3  102.4   -1.7  146.5   -6.9    24.6
 03 FEB 18  49:08:00:00     916    4.1      71    0.6      214.3  102.4   -1.7  146.5   -6.9    24.0
 03 FEB 18  49:09:00:00     858    3.9      77   -0.3      214.4  102.4   -1.8  146.5   -6.9    23.5
 03 FEB 18  49:10:00:00     805    3.0      75   -0.8      214.5  102.4   -1.8  146.5   -6.9    22.9
 03 FEB 18  49:11:00:00     717    2.7      71   -0.4      214.5  102.4   -1.8  146.5   -7.0    22.4
 03 FEB 18  49:12:00:00     612    6.7      52   -0.6      214.6  102.4   -1.8  146.5   -7.0    21.8
 03 FEB 18  49:13:00:00     569   10.4      39   -1.2      214.6  102.4   -1.9  146.5   -7.0    21.3
 03 FEB 18  49:14:00:00     558    8.3      33   -1.1      214.7  102.4   -1.9  146.5   -7.0    20.7
 03 FEB 18  49:15:00:00     570    6.0      39   -1.0      214.7  102.5   -1.9  146.5   -7.0    20.2
 03 FEB 18  49:16:00:00     577    5.5      40   -1.4      214.8  102.5   -2.0  146.5   -7.0    19.6
 03 FEB 18  49:17:00:00     577    5.0      39   -1.4      214.8  102.5   -2.0  146.5   -7.0    19.1
 03 FEB 18  49:18:00:00     581    4.6      41   -1.4      214.9  102.5   -2.0  146.5   -7.0    18.5
 03 FEB 18  49:19:00:00     592    4.5      43   -1.0      214.9  102.5   -2.0  146.5   -7.0    18.0
 03 FEB 18  49:20:00:00     598    4.1      43   -1.0      215.0  102.5   -2.1  146.5   -7.0    17.4
 03 FEB 18  49:21:00:00     597    3.8      43   -1.0      215.0  102.5   -2.1  146.5   -7.0    16.9
 03 FEB 18  49:22:00:00     592    3.0      44   -0.4      215.1  102.5   -2.1  146.5   -7.0    16.3
 03 FEB 18  49:23:00:00     600    2.6      44   -1.2      215.1  102.5   -2.1  146.5   -7.0    15.8
 03 FEB 19  50:00:00:00     628    2.5      44   -1.5      215.2  102.5   -2.2  146.5   -7.0    15.2
 03 FEB 19  50:01:00:00     614    2.7      45   -1.7      215.3  102.5   -2.2  146.5   -7.0    14.7
 03 FEB 19  50:02:00:00     597    3.6      43   -1.9      215.3  102.5   -2.2  146.5   -7.0    14.1
 03 FEB 19  50:03:00:00     599    3.1      45   -1.6      215.4  102.5   -2.3  146.5   -7.0    13.6
 03 FEB 19  50:04:00:00     581    2.7      54   -1.4      215.4  102.5   -2.3  146.5   -7.0    13.0
 03 FEB 19  50:05:00:00     553    3.3      54   -1.3      215.5  102.5   -2.3  146.5   -7.0    12.5
 03 FEB 19  50:06:00:00     560    3.6      52   -1.9      215.5  102.5   -2.3  146.5   -7.0    11.9
 03 FEB 19  50:07:00:00     543    4.3      51   -2.2      215.6  102.5   -2.4  146.5   -7.0    11.4
 03 FEB 19  50:08:00:00     509    6.2      47   -2.0      215.6  102.5   -2.4  146.5   -7.0    10.8
 03 FEB 19  50:09:00:00     510    6.2      47   -1.7      215.7  102.5   -2.4  146.5   -7.0    10.3
 03 FEB 19  50:10:00:00     511    5.9      48   -1.2      215.7  102.5   -2.5  146.5   -7.0     9.7
 03 FEB 19  50:11:00:00     506    7.0      46   -1.8      215.8  102.5   -2.5  146.5   -7.0     9.2
 03 FEB 19  50:12:00:00     511    6.6      51   -0.6      215.9  102.5   -2.5  146.5   -7.0     8.6
 03 FEB 19  50:13:00:00     513    7.6      50   -1.9      215.9  102.5   -2.5  146.5   -7.0     8.1
 03 FEB 19  50:14:00:00     545    6.8      53    0.3      216.0  102.5   -2.6  146.5   -7.0     7.5
 03 FEB 19  50:15:00:00     553    7.4      50   -1.4      216.0  102.5   -2.6  146.5   -7.0     7.0
 03 FEB 19  50:16:00:00     539    9.7      48   -0.2      216.1  102.5   -2.6  146.5   -7.0     6.4
 03 FEB 19  50:17:00:00     540   11.0      48    1.5      216.1  102.5   -2.7  146.5   -7.0     5.9
 03 FEB 19  50:18:00:00     547    9.1      46    0.6      216.2  102.5   -2.7  146.5   -7.0     5.3
 03 FEB 19  50:19:00:00     543   10.6      47    2.1      216.2  102.5   -2.7  146.5   -7.0     4.8
 03 FEB 19  50:20:00:00     535    9.6      49    2.1      216.3  102.5   -2.7  146.5   -7.0     4.2
 03 FEB 19  50:21:00:00     538    7.1      52    0.5      216.4  102.5   -2.8  146.5   -7.0     3.7
 03 FEB 19  50:22:00:00     541    7.3      49    0.2      216.4  102.5   -2.8  146.5   -7.0     3.1
 03 FEB 19  50:23:00:00     520    7.2      46   -1.9      216.5  102.5   -2.8  146.5   -7.0     2.6
 03 FEB 20  51:00:00:00     532    9.3      45   -2.7      216.5  102.5   -2.9  146.5   -7.0     2.0
 03 FEB 20  51:01:00:00     542   11.8      45   -4.0      216.6  102.5   -2.9  146.5   -7.0     1.5
 03 FEB 20  51:02:00:00     562    8.2      53   -2.7      216.6  102.5   -2.9  146.5   -7.0     0.9
 03 FEB 20  51:03:00:00     583    7.3      59   -0.6      216.7  102.5   -2.9  146.5   -7.0     0.4
 03 FEB 20  51:04:00:00     581    6.6      55   -2.8      216.7  102.5   -3.0  146.5   -7.0   359.8
 03 FEB 20  51:05:00:00     601    6.5      58   -1.8      216.8  102.4   -3.0  146.5   -7.0   359.3
 03 FEB 20  51:06:00:00     633    6.5      60   -2.2      216.9  102.4   -3.0  146.5   -7.0   358.7